sensor_id;sensor_type;location;lat;lon;timestamp;pressure;altitude;pressure_sealevel;temperature;humidity
26657;BME280;14279;50.010;8.260;2022-07-18T00:01:22;101196.47;;;21.53;41.35
26657;BME280;14279;50.010;8.260;2022-07-18T00:03:47;101205.28;;;21.53;41.78
26657;BME280;14279;50.010;8.260;2022-07-18T00:06:13;101202.16;;;21.48;41.62
26657;BME280;14279;50.010;8.260;2022-07-18T00:08:38;101201.78;;;21.53;41.51
26657;BME280;14279;50.010;8.260;2022-07-18T00:11:03;101206.69;;;21.57;41.61
26657;BME280;14279;50.010;8.260;2022-07-18T00:13:28;101197.31;;;21.42;41.66
26657;BME280;14279;50.010;8.260;2022-07-18T00:15:54;101200.56;;;21.45;41.58
26657;BME280;14279;50.010;8.260;2022-07-18T00:18:19;101203.84;;;21.49;41.20
26657;BME280;14279;50.010;8.260;2022-07-18T00:20:44;101206.97;;;21.43;41.48
26657;BME280;14279;50.010;8.260;2022-07-18T00:23:09;101202.50;;;21.43;41.57
26657;BME280;14279;50.010;8.260;2022-07-18T00:25:35;101202.50;;;21.32;41.52
26657;BME280;14279;50.010;8.260;2022-07-18T00:28:00;101203.00;;;21.14;42.04
26657;BME280;14279;50.010;8.260;2022-07-18T00:30:25;101201.06;;;21.16;42.10
26657;BME280;14279;50.010;8.260;2022-07-18T00:32:50;101203.59;;;21.18;42.02
26657;BME280;14279;50.010;8.260;2022-07-18T00:35:16;101200.22;;;21.16;41.87
26657;BME280;14279;50.010;8.260;2022-07-18T00:37:41;101199.97;;;21.08;41.91
26657;BME280;14279;50.010;8.260;2022-07-18T00:40:07;101194.19;;;21.02;42.13
26657;BME280;14279;50.010;8.260;2022-07-18T00:42:32;101194.19;;;21.02;42.12
26657;BME280;14279;50.010;8.260;2022-07-18T00:44:58;101193.84;;;21.07;41.95
26657;BME280;14279;50.010;8.260;2022-07-18T00:47:23;101187.22;;;21.01;42.19
26657;BME280;14279;50.010;8.260;2022-07-18T00:49:49;101198.16;;;20.97;42.09
26657;BME280;14279;50.010;8.260;2022-07-18T00:52:14;101195.75;;;20.94;42.31
26657;BME280;14279;50.010;8.260;2022-07-18T00:54:40;101193.72;;;20.97;41.93
26657;BME280;14279;50.010;8.260;2022-07-18T00:57:05;101196.47;;;20.96;41.61
26657;BME280;14279;50.010;8.260;2022-07-18T00:59:31;101194.19;;;20.91;41.71
26657;BME280;14279;50.010;8.260;2022-07-18T01:02:16;101198.63;;;20.91;42.02
26657;BME280;14279;50.010;8.260;2022-07-18T01:04:41;101191.63;;;20.78;42.58
26657;BME280;14279;50.010;8.260;2022-07-18T01:07:06;101187.84;;;20.69;43.05
26657;BME280;14279;50.010;8.260;2022-07-18T01:09:32;101198.88;;;20.63;43.30
26657;BME280;14279;50.010;8.260;2022-07-18T01:11:58;101196.38;;;20.62;43.70
26657;BME280;14279;50.010;8.260;2022-07-18T01:14:23;101189.28;;;20.62;44.32
26657;BME280;14279;50.010;8.260;2022-07-18T01:16:49;101184.47;;;20.56;44.28
26657;BME280;14279;50.010;8.260;2022-07-18T01:19:14;101190.13;;;20.63;44.47
26657;BME280;14279;50.010;8.260;2022-07-18T01:21:40;101196.09;;;20.53;44.84
26657;BME280;14279;50.010;8.260;2022-07-18T01:24:06;101193.69;;;20.50;45.13
26657;BME280;14279;50.010;8.260;2022-07-18T01:26:31;101190.09;;;20.51;45.05
26657;BME280;14279;50.010;8.260;2022-07-18T01:28:57;101197.28;;;20.49;45.01
26657;BME280;14279;50.010;8.260;2022-07-18T01:31:22;101192.81;;;20.38;45.28
26657;BME280;14279;50.010;8.260;2022-07-18T01:33:47;101193.53;;;20.40;45.37
26657;BME280;14279;50.010;8.260;2022-07-18T01:36:12;101194.97;;;20.33;45.70
26657;BME280;14279;50.010;8.260;2022-07-18T01:38:38;101196.06;;;20.42;45.98
26657;BME280;14279;50.010;8.260;2022-07-18T01:41:04;101190.44;;;20.22;46.33
26657;BME280;14279;50.010;8.260;2022-07-18T01:43:30;101200.69;;;20.27;46.20
26657;BME280;14279;50.010;8.260;2022-07-18T01:45:55;101190.94;;;20.16;46.62
26657;BME280;14279;50.010;8.260;2022-07-18T01:48:21;101192.84;;;20.14;46.88
26657;BME280;14279;50.010;8.260;2022-07-18T01:50:49;101188.78;;;20.21;46.85
26657;BME280;14279;50.010;8.260;2022-07-18T01:53:14;101191.38;;;20.10;47.37
26657;BME280;14279;50.010;8.260;2022-07-18T01:55:39;101187.31;;;20.17;47.18
26657;BME280;14279;50.010;8.260;2022-07-18T01:58:05;101194.19;;;20.20;47.24
26657;BME280;14279;50.010;8.260;2022-07-18T02:00:30;101198.00;;;20.16;47.74
26657;BME280;14279;50.010;8.260;2022-07-18T02:02:56;101191.97;;;20.13;47.55
26657;BME280;14279;50.010;8.260;2022-07-18T02:05:21;101199.31;;;20.10;47.91
26657;BME280;14279;50.010;8.260;2022-07-18T02:07:46;101194.94;;;19.97;48.04
26657;BME280;14279;50.010;8.260;2022-07-18T02:10:15;101197.97;;;20.04;48.11
26657;BME280;14279;50.010;8.260;2022-07-18T02:12:40;101194.81;;;19.99;48.51
26657;BME280;14279;50.010;8.260;2022-07-18T02:15:07;101192.50;;;19.94;48.61
26657;BME280;14279;50.010;8.260;2022-07-18T02:17:33;101192.50;;;19.94;48.72
26657;BME280;14279;50.010;8.260;2022-07-18T02:19:59;101188.19;;;19.80;48.86
26657;BME280;14279;50.010;8.260;2022-07-18T02:22:24;101194.13;;;19.71;49.17
26657;BME280;14279;50.010;8.260;2022-07-18T02:24:50;101193.69;;;19.77;49.23
26657;BME280;14279;50.010;8.260;2022-07-18T02:27:16;101191.41;;;19.60;49.78
26657;BME280;14279;50.010;8.260;2022-07-18T02:29:41;101190.16;;;19.52;49.63
26657;BME280;14279;50.010;8.260;2022-07-18T02:32:06;101183.81;;;19.42;49.99
26657;BME280;14279;50.010;8.260;2022-07-18T02:34:32;101183.53;;;19.34;50.32
26657;BME280;14279;50.010;8.260;2022-07-18T02:36:58;101179.63;;;19.40;50.06
26657;BME280;14279;50.010;8.260;2022-07-18T02:39:23;101184.78;;;19.28;50.06
26657;BME280;14279;50.010;8.260;2022-07-18T02:41:48;101184.78;;;19.41;49.82
26657;BME280;14279;50.010;8.260;2022-07-18T02:44:14;101180.56;;;19.38;49.78
26657;BME280;14279;50.010;8.260;2022-07-18T02:46:39;101183.59;;;19.58;49.30
26657;BME280;14279;50.010;8.260;2022-07-18T02:49:05;101177.81;;;19.40;49.63
26657;BME280;14279;50.010;8.260;2022-07-18T02:51:30;101184.69;;;19.43;49.66
26657;BME280;14279;50.010;8.260;2022-07-18T02:53:55;101188.38;;;19.40;49.72
26657;BME280;14279;50.010;8.260;2022-07-18T02:56:21;101182.69;;;19.33;49.61
26657;BME280;14279;50.010;8.260;2022-07-18T02:58:46;101195.91;;;19.20;49.50
26657;BME280;14279;50.010;8.260;2022-07-18T03:01:11;101183.84;;;19.29;49.16
26657;BME280;14279;50.010;8.260;2022-07-18T03:03:37;101188.94;;;19.19;49.52
26657;BME280;14279;50.010;8.260;2022-07-18T03:06:02;101196.84;;;19.19;48.58
26657;BME280;14279;50.010;8.260;2022-07-18T03:08:27;101195.81;;;19.22;48.79
26657;BME280;14279;50.010;8.260;2022-07-18T03:10:53;101195.59;;;19.12;48.84
26657;BME280;14279;50.010;8.260;2022-07-18T03:13:18;101190.81;;;19.17;48.73
26657;BME280;14279;50.010;8.260;2022-07-18T03:15:43;101188.72;;;18.97;49.13
26657;BME280;14279;50.010;8.260;2022-07-18T03:18:09;101190.22;;;19.01;49.06
26657;BME280;14279;50.010;8.260;2022-07-18T03:20:34;101191.97;;;18.87;49.19
26657;BME280;14279;50.010;8.260;2022-07-18T03:23:04;101197.06;;;19.03;48.98
26657;BME280;14279;50.010;8.260;2022-07-18T03:25:30;101195.25;;;18.91;49.10
26657;BME280;14279;50.010;8.260;2022-07-18T03:27:55;101194.94;;;18.96;49.29
26657;BME280;14279;50.010;8.260;2022-07-18T03:30:21;101189.66;;;18.96;49.33
26657;BME280;14279;50.010;8.260;2022-07-18T03:32:46;101194.66;;;19.00;49.40
26657;BME280;14279;50.010;8.260;2022-07-18T03:35:11;101186.50;;;19.03;49.32
26657;BME280;14279;50.010;8.260;2022-07-18T03:37:36;101192.97;;;18.99;49.40
26657;BME280;14279;50.010;8.260;2022-07-18T03:40:02;101196.56;;;18.98;49.73
26657;BME280;14279;50.010;8.260;2022-07-18T03:42:27;101193.56;;;18.90;49.69
26657;BME280;14279;50.010;8.260;2022-07-18T03:44:52;101197.38;;;18.99;49.80
26657;BME280;14279;50.010;8.260;2022-07-18T03:47:18;101200.44;;;19.05;49.53
26657;BME280;14279;50.010;8.260;2022-07-18T03:49:43;101200.22;;;19.08;49.61
26657;BME280;14279;50.010;8.260;2022-07-18T03:52:08;101197.72;;;19.20;49.39
26657;BME280;14279;50.010;8.260;2022-07-18T03:54:33;101196.97;;;19.05;49.41
26657;BME280;14279;50.010;8.260;2022-07-18T03:56:59;101191.03;;;19.14;49.38
26657;BME280;14279;50.010;8.260;2022-07-18T03:59:24;101201.16;;;18.95;49.54
26657;BME280;14279;50.010;8.260;2022-07-18T04:01:49;101192.72;;;19.02;49.68
26657;BME280;14279;50.010;8.260;2022-07-18T04:04:15;101198.88;;;19.03;49.71
26657;BME280;14279;50.010;8.260;2022-07-18T04:06:40;101198.44;;;19.09;49.41
26657;BME280;14279;50.010;8.260;2022-07-18T04:09:06;101187.97;;;19.07;49.53
26657;BME280;14279;50.010;8.260;2022-07-18T04:11:31;101196.09;;;19.17;49.48
26657;BME280;14279;50.010;8.260;2022-07-18T04:13:56;101197.91;;;19.17;49.27
26657;BME280;14279;50.010;8.260;2022-07-18T04:16:22;101196.22;;;19.03;49.56
26657;BME280;14279;50.010;8.260;2022-07-18T04:18:47;101197.13;;;18.89;49.92
26657;BME280;14279;50.010;8.260;2022-07-18T04:21:13;101202.03;;;18.95;49.72
26657;BME280;14279;50.010;8.260;2022-07-18T04:23:39;101200.63;;;18.89;49.45
26657;BME280;14279;50.010;8.260;2022-07-18T04:26:05;101197.53;;;18.70;49.87
26657;BME280;14279;50.010;8.260;2022-07-18T04:28:30;101204.63;;;18.69;49.81
26657;BME280;14279;50.010;8.260;2022-07-18T04:30:56;101204.09;;;18.77;49.68
26657;BME280;14279;50.010;8.260;2022-07-18T04:33:21;101205.56;;;18.81;49.52
26657;BME280;14279;50.010;8.260;2022-07-18T04:35:48;101205.78;;;18.78;49.79
26657;BME280;14279;50.010;8.260;2022-07-18T04:38:13;101208.97;;;18.83;49.86
26657;BME280;14279;50.010;8.260;2022-07-18T04:40:39;101202.28;;;18.90;49.46
26657;BME280;14279;50.010;8.260;2022-07-18T04:43:05;101204.69;;;18.95;49.76
26657;BME280;14279;50.010;8.260;2022-07-18T04:45:30;101201.63;;;19.01;49.56
26657;BME280;14279;50.010;8.260;2022-07-18T04:47:55;101205.91;;;19.15;49.28
26657;BME280;14279;50.010;8.260;2022-07-18T04:50:21;101202.44;;;19.02;49.23
26657;BME280;14279;50.010;8.260;2022-07-18T04:52:47;101206.53;;;18.93;49.22
26657;BME280;14279;50.010;8.260;2022-07-18T04:55:15;101207.38;;;18.93;49.18
26657;BME280;14279;50.010;8.260;2022-07-18T04:57:40;101209.84;;;18.97;48.90
26657;BME280;14279;50.010;8.260;2022-07-18T05:00:14;101213.53;;;19.07;48.23
26657;BME280;14279;50.010;8.260;2022-07-18T05:02:41;101215.03;;;18.98;48.12
26657;BME280;14279;50.010;8.260;2022-07-18T05:05:07;101206.00;;;18.88;48.00
26657;BME280;14279;50.010;8.260;2022-07-18T05:07:33;101217.88;;;18.95;47.42
26657;BME280;14279;50.010;8.260;2022-07-18T05:09:58;101208.34;;;19.05;47.61
26657;BME280;14279;50.010;8.260;2022-07-18T05:12:24;101219.84;;;19.04;47.82
26657;BME280;14279;50.010;8.260;2022-07-18T05:14:50;101208.13;;;19.34;47.12
26657;BME280;14279;50.010;8.260;2022-07-18T05:17:15;101213.94;;;19.40;46.95
26657;BME280;14279;50.010;8.260;2022-07-18T05:19:41;101207.38;;;19.45;46.96
26657;BME280;14279;50.010;8.260;2022-07-18T05:22:06;101203.66;;;19.61;46.63
26657;BME280;14279;50.010;8.260;2022-07-18T05:24:31;101203.91;;;19.45;47.21
26657;BME280;14279;50.010;8.260;2022-07-18T05:26:56;101209.50;;;19.40;47.50
26657;BME280;14279;50.010;8.260;2022-07-18T05:29:22;101207.69;;;19.53;47.39
26657;BME280;14279;50.010;8.260;2022-07-18T05:31:49;101208.63;;;19.65;47.00
26657;BME280;14279;50.010;8.260;2022-07-18T05:34:14;101211.13;;;19.67;46.61
26657;BME280;14279;50.010;8.260;2022-07-18T05:36:39;101209.13;;;19.71;46.60
26657;BME280;14279;50.010;8.260;2022-07-18T05:39:05;101206.56;;;19.82;46.40
26657;BME280;14279;50.010;8.260;2022-07-18T05:41:30;101207.50;;;19.94;46.38
26657;BME280;14279;50.010;8.260;2022-07-18T05:43:55;101201.81;;;20.11;45.82
26657;BME280;14279;50.010;8.260;2022-07-18T05:46:21;101202.69;;;20.12;46.03
26657;BME280;14279;50.010;8.260;2022-07-18T05:48:46;101196.22;;;20.16;45.89
26657;BME280;14279;50.010;8.260;2022-07-18T05:51:12;101198.84;;;20.16;45.96
26657;BME280;14279;50.010;8.260;2022-07-18T05:53:37;101208.06;;;20.10;45.77
26657;BME280;14279;50.010;8.260;2022-07-18T05:56:03;101202.69;;;20.12;45.92
26657;BME280;14279;50.010;8.260;2022-07-18T05:58:28;101201.03;;;20.22;45.49
26657;BME280;14279;50.010;8.260;2022-07-18T06:00:54;101194.25;;;20.42;45.16
26657;BME280;14279;50.010;8.260;2022-07-18T06:03:28;101195.38;;;20.51;44.73
26657;BME280;14279;50.010;8.260;2022-07-18T06:05:54;101198.28;;;20.60;43.97
26657;BME280;14279;50.010;8.260;2022-07-18T06:08:19;101196.28;;;20.75;43.70
26657;BME280;14279;50.010;8.260;2022-07-18T06:10:45;101202.56;;;20.85;43.41
26657;BME280;14279;50.010;8.260;2022-07-18T06:13:17;101199.94;;;20.85;43.30
26657;BME280;14279;50.010;8.260;2022-07-18T06:19:20;101207.09;;;21.19;42.99
26657;BME280;14279;50.010;8.260;2022-07-18T06:22:34;101199.50;;;21.25;42.82
26657;BME280;14279;50.010;8.260;2022-07-18T06:28:52;101193.47;;;21.46;44.54
26657;BME280;14279;50.010;8.260;2022-07-18T06:31:38;101198.03;;;21.55;44.80
26657;BME280;14279;50.010;8.260;2022-07-18T06:34:16;101191.22;;;21.64;44.48
26657;BME280;14279;50.010;8.260;2022-07-18T06:36:41;101192.84;;;21.76;44.99
26657;BME280;14279;50.010;8.260;2022-07-18T06:39:07;101183.44;;;21.84;44.97
26657;BME280;14279;50.010;8.260;2022-07-18T06:41:36;101182.84;;;21.80;45.12
26657;BME280;14279;50.010;8.260;2022-07-18T06:44:02;101181.38;;;21.87;44.35
26657;BME280;14279;50.010;8.260;2022-07-18T06:46:27;101179.53;;;21.99;43.29
26657;BME280;14279;50.010;8.260;2022-07-18T06:48:53;101190.03;;;22.01;41.27
26657;BME280;14279;50.010;8.260;2022-07-18T06:51:21;101188.03;;;22.14;40.76
26657;BME280;14279;50.010;8.260;2022-07-18T06:53:46;101188.59;;;22.29;38.92
26657;BME280;14279;50.010;8.260;2022-07-18T06:56:12;101173.47;;;22.41;39.26
26657;BME280;14279;50.010;8.260;2022-07-18T06:58:37;101179.25;;;22.46;38.91
26657;BME280;14279;50.010;8.260;2022-07-18T07:01:03;101182.56;;;22.60;39.43
26657;BME280;14279;50.010;8.260;2022-07-18T07:03:28;101184.50;;;22.58;38.99
26657;BME280;14279;50.010;8.260;2022-07-18T07:05:53;101183.72;;;22.46;38.63
26657;BME280;14279;50.010;8.260;2022-07-18T07:08:19;101185.53;;;22.66;38.44
26657;BME280;14279;50.010;8.260;2022-07-18T07:10:44;101183.31;;;22.72;38.12
26657;BME280;14279;50.010;8.260;2022-07-18T07:13:10;101182.59;;;22.70;38.37
26657;BME280;14279;50.010;8.260;2022-07-18T07:15:35;101184.53;;;22.89;38.42
26657;BME280;14279;50.010;8.260;2022-07-18T07:18:00;101189.38;;;23.05;38.24
26657;BME280;14279;50.010;8.260;2022-07-18T07:20:26;101186.50;;;23.18;37.85
26657;BME280;14279;50.010;8.260;2022-07-18T07:22:53;101188.09;;;23.30;37.34
26657;BME280;14279;50.010;8.260;2022-07-18T07:25:20;101183.16;;;23.47;37.24
26657;BME280;14279;50.010;8.260;2022-07-18T07:27:45;101184.28;;;23.64;36.29
26657;BME280;14279;50.010;8.260;2022-07-18T07:30:12;101185.69;;;23.68;36.76
26657;BME280;14279;50.010;8.260;2022-07-18T07:32:40;101183.91;;;23.78;36.29
26657;BME280;14279;50.010;8.260;2022-07-18T07:35:07;101175.19;;;23.56;34.76
26657;BME280;14279;50.010;8.260;2022-07-18T07:37:36;101177.03;;;23.76;34.22
26657;BME280;14279;50.010;8.260;2022-07-18T07:40:02;101181.38;;;23.86;35.00
26657;BME280;14279;50.010;8.260;2022-07-18T07:42:27;101175.56;;;24.02;34.63
26657;BME280;14279;50.010;8.260;2022-07-18T07:44:53;101175.72;;;24.11;34.32
26657;BME280;14279;50.010;8.260;2022-07-18T07:47:18;101171.06;;;24.33;33.37
26657;BME280;14279;50.010;8.260;2022-07-18T07:49:43;101166.16;;;24.48;33.51
26657;BME280;14279;50.010;8.260;2022-07-18T07:52:08;101161.38;;;24.51;31.89
26657;BME280;14279;50.010;8.260;2022-07-18T07:54:36;101156.88;;;24.61;32.19
26657;BME280;14279;50.010;8.260;2022-07-18T07:57:01;101160.66;;;24.79;32.00
26657;BME280;14279;50.010;8.260;2022-07-18T07:59:27;101154.31;;;24.70;31.50
26657;BME280;14279;50.010;8.260;2022-07-18T08:01:52;101161.25;;;24.72;32.30
26657;BME280;14279;50.010;8.260;2022-07-18T08:04:17;101164.00;;;24.90;31.09
26657;BME280;14279;50.010;8.260;2022-07-18T08:06:43;101165.75;;;25.00;30.78
26657;BME280;14279;50.010;8.260;2022-07-18T08:09:08;101151.47;;;25.01;29.81
26657;BME280;14279;50.010;8.260;2022-07-18T08:11:33;101152.72;;;24.97;30.39
26657;BME280;14279;50.010;8.260;2022-07-18T08:13:59;101153.31;;;25.00;30.33
26657;BME280;14279;50.010;8.260;2022-07-18T08:16:24;101155.06;;;25.10;30.27
26657;BME280;14279;50.010;8.260;2022-07-18T08:18:50;101149.69;;;25.19;29.90
26657;BME280;14279;50.010;8.260;2022-07-18T08:21:15;101142.34;;;25.31;29.42
26657;BME280;14279;50.010;8.260;2022-07-18T08:23:40;101142.44;;;25.40;29.08
26657;BME280;14279;50.010;8.260;2022-07-18T08:26:06;101140.03;;;25.46;28.60
26657;BME280;14279;50.010;8.260;2022-07-18T08:28:32;101146.44;;;25.54;28.36
26657;BME280;14279;50.010;8.260;2022-07-18T08:31:00;101139.16;;;25.56;28.61
26657;BME280;14279;50.010;8.260;2022-07-18T08:33:25;101146.22;;;25.65;28.46
26657;BME280;14279;50.010;8.260;2022-07-18T08:35:51;101142.50;;;25.58;28.38
26657;BME280;14279;50.010;8.260;2022-07-18T08:38:21;101145.31;;;25.74;28.29
26657;BME280;14279;50.010;8.260;2022-07-18T08:40:52;101141.22;;;25.80;28.15
26657;BME280;14279;50.010;8.260;2022-07-18T08:43:32;101142.44;;;25.86;27.76
26657;BME280;14279;50.010;8.260;2022-07-18T08:46:03;101137.03;;;25.95;26.95
26657;BME280;14279;50.010;8.260;2022-07-18T08:48:29;101135.56;;;26.01;26.30
26657;BME280;14279;50.010;8.260;2022-07-18T08:50:54;101136.94;;;26.05;26.29
26657;BME280;14279;50.010;8.260;2022-07-18T08:53:20;101139.00;;;26.11;26.26
26657;BME280;14279;50.010;8.260;2022-07-18T08:55:46;101140.13;;;26.09;26.39
26657;BME280;14279;50.010;8.260;2022-07-18T08:58:12;101140.16;;;26.27;26.47
26657;BME280;14279;50.010;8.260;2022-07-18T09:00:39;101139.84;;;26.30;26.45
26657;BME280;14279;50.010;8.260;2022-07-18T09:03:05;101139.38;;;26.17;26.51
26657;BME280;14279;50.010;8.260;2022-07-18T09:05:31;101132.66;;;26.31;26.54
26657;BME280;14279;50.010;8.260;2022-07-18T09:08:19;101138.59;;;26.24;27.50
26657;BME280;14279;50.010;8.260;2022-07-18T09:10:56;101138.06;;;26.39;26.63
26657;BME280;14279;50.010;8.260;2022-07-18T09:13:24;101137.16;;;26.56;26.07
26657;BME280;14279;50.010;8.260;2022-07-18T09:16:06;101133.50;;;26.58;26.23
26657;BME280;14279;50.010;8.260;2022-07-18T09:18:38;101128.66;;;26.53;26.29
26657;BME280;14279;50.010;8.260;2022-07-18T09:21:16;101126.28;;;26.50;25.70
26657;BME280;14279;50.010;8.260;2022-07-18T09:23:45;101128.53;;;26.63;25.96
26657;BME280;14279;50.010;8.260;2022-07-18T09:26:34;101120.91;;;26.76;26.19
26657;BME280;14279;50.010;8.260;2022-07-18T09:29:02;101122.34;;;26.89;25.58
26657;BME280;14279;50.010;8.260;2022-07-18T09:31:28;101121.72;;;26.95;25.39
26657;BME280;14279;50.010;8.260;2022-07-18T09:34:01;101132.59;;;27.02;25.23
26657;BME280;14279;50.010;8.260;2022-07-18T09:36:28;101122.06;;;27.00;25.09
26657;BME280;14279;50.010;8.260;2022-07-18T09:38:54;101123.53;;;26.94;24.94
26657;BME280;14279;50.010;8.260;2022-07-18T09:41:24;101127.84;;;26.87;25.19
26657;BME280;14279;50.010;8.260;2022-07-18T09:43:50;101129.44;;;27.06;25.48
26657;BME280;14279;50.010;8.260;2022-07-18T09:46:15;101119.28;;;27.18;25.18
26657;BME280;14279;50.010;8.260;2022-07-18T09:48:40;101128.34;;;27.25;24.83
26657;BME280;14279;50.010;8.260;2022-07-18T09:51:07;101117.69;;;27.42;25.37
26657;BME280;14279;50.010;8.260;2022-07-18T09:53:40;101117.06;;;27.48;24.57
26657;BME280;14279;50.010;8.260;2022-07-18T09:56:14;101120.75;;;27.64;24.45
26657;BME280;14279;50.010;8.260;2022-07-18T09:58:53;101121.28;;;27.67;24.66
26657;BME280;14279;50.010;8.260;2022-07-18T10:01:19;101113.88;;;27.53;24.40
26657;BME280;14279;50.010;8.260;2022-07-18T10:03:44;101119.63;;;27.66;24.70
26657;BME280;14279;50.010;8.260;2022-07-18T10:06:10;101117.09;;;27.81;23.75
26657;BME280;14279;50.010;8.260;2022-07-18T10:08:36;101117.13;;;27.98;23.57
26657;BME280;14279;50.010;8.260;2022-07-18T10:11:04;101116.09;;;27.90;23.31
26657;BME280;14279;50.010;8.260;2022-07-18T10:13:37;101118.75;;;28.07;22.94
26657;BME280;14279;50.010;8.260;2022-07-18T10:16:03;101111.59;;;28.24;22.71
26657;BME280;14279;50.010;8.260;2022-07-18T10:18:33;101115.47;;;28.22;22.45
26657;BME280;14279;50.010;8.260;2022-07-18T10:21:05;101112.94;;;28.28;22.42
26657;BME280;14279;50.010;8.260;2022-07-18T10:23:44;101110.91;;;28.39;22.38
26657;BME280;14279;50.010;8.260;2022-07-18T10:26:20;101109.38;;;28.53;22.65
26657;BME280;14279;50.010;8.260;2022-07-18T10:31:30;101111.00;;;28.70;22.82
26657;BME280;14279;50.010;8.260;2022-07-18T10:36:29;101106.31;;;28.72;21.73
26657;BME280;14279;50.010;8.260;2022-07-18T10:57:30;101095.63;;;29.44;21.10
26657;BME280;14279;50.010;8.260;2022-07-18T11:00:05;101087.03;;;29.48;21.18
26657;BME280;14279;50.010;8.260;2022-07-18T11:21:33;101060.97;;;29.80;20.36
26657;BME280;14279;50.010;8.260;2022-07-18T11:24:01;101060.78;;;29.82;20.16
26657;BME280;14279;50.010;8.260;2022-07-18T11:26:27;101068.66;;;29.83;20.65
26657;BME280;14279;50.010;8.260;2022-07-18T11:28:58;101060.06;;;29.88;20.40
26657;BME280;14279;50.010;8.260;2022-07-18T11:31:24;101053.63;;;29.74;20.87
26657;BME280;14279;50.010;8.260;2022-07-18T11:33:50;101046.69;;;30.03;20.41
26657;BME280;14279;50.010;8.260;2022-07-18T11:36:17;101042.91;;;30.12;20.45
26657;BME280;14279;50.010;8.260;2022-07-18T11:38:54;101043.28;;;30.24;20.72
26657;BME280;14279;50.010;8.260;2022-07-18T11:41:21;101043.56;;;30.29;20.72
26657;BME280;14279;50.010;8.260;2022-07-18T11:43:49;101042.75;;;30.29;20.60
26657;BME280;14279;50.010;8.260;2022-07-18T11:46:18;101045.22;;;30.46;20.81
26657;BME280;14279;50.010;8.260;2022-07-18T11:48:46;101039.03;;;30.45;19.86
26657;BME280;14279;50.010;8.260;2022-07-18T11:51:14;101042.63;;;30.52;19.96
26657;BME280;14279;50.010;8.260;2022-07-18T11:53:44;101037.81;;;30.48;19.89
26657;BME280;14279;50.010;8.260;2022-07-18T11:56:09;101033.91;;;30.35;19.67
26657;BME280;14279;50.010;8.260;2022-07-18T11:58:39;101035.59;;;30.36;19.84
26657;BME280;14279;50.010;8.260;2022-07-18T12:01:06;101038.28;;;30.51;20.20
26657;BME280;14279;50.010;8.260;2022-07-18T12:03:34;101032.91;;;30.66;20.26
26657;BME280;14279;50.010;8.260;2022-07-18T12:06:10;101031.66;;;30.84;20.05
26657;BME280;14279;50.010;8.260;2022-07-18T12:09:02;101024.03;;;30.66;19.64
26657;BME280;14279;50.010;8.260;2022-07-18T12:11:36;101023.16;;;30.80;19.56
26657;BME280;14279;50.010;8.260;2022-07-18T12:16:42;101023.16;;;30.80;19.57
26657;BME280;14279;50.010;8.260;2022-07-18T12:19:10;101024.78;;;30.96;19.31
26657;BME280;14279;50.010;8.260;2022-07-18T12:21:43;101019.69;;;31.01;19.94
26657;BME280;14279;50.010;8.260;2022-07-18T12:24:35;101011.31;;;31.11;19.05
26657;BME280;14279;50.010;8.260;2022-07-18T12:27:24;101013.97;;;31.26;18.95
26657;BME280;14279;50.010;8.260;2022-07-18T12:29:56;101006.66;;;31.42;19.17
26657;BME280;14279;50.010;8.260;2022-07-18T12:34:59;101004.09;;;30.97;18.94
26657;BME280;14279;50.010;8.260;2022-07-18T12:37:26;100996.97;;;31.26;19.76
26657;BME280;14279;50.010;8.260;2022-07-18T12:39:56;100998.06;;;31.53;19.07
26657;BME280;14279;50.010;8.260;2022-07-18T12:42:31;101001.56;;;31.75;18.30
26657;BME280;14279;50.010;8.260;2022-07-18T12:44:57;100992.97;;;31.65;18.70
26657;BME280;14279;50.010;8.260;2022-07-18T12:47:23;100982.13;;;31.30;18.33
26657;BME280;14279;50.010;8.260;2022-07-18T12:49:48;100992.09;;;31.58;18.42
26657;BME280;14279;50.010;8.260;2022-07-18T12:52:13;100980.59;;;31.21;18.95
26657;BME280;14279;50.010;8.260;2022-07-18T12:54:39;100979.28;;;31.60;19.54
26657;BME280;14279;50.010;8.260;2022-07-18T12:57:04;100976.31;;;32.12;19.31
26657;BME280;14279;50.010;8.260;2022-07-18T12:59:29;100976.53;;;32.17;18.64
26657;BME280;14279;50.010;8.260;2022-07-18T13:01:55;100970.91;;;32.47;18.41
26657;BME280;14279;50.010;8.260;2022-07-18T13:04:20;100965.13;;;32.57;18.47
26657;BME280;14279;50.010;8.260;2022-07-18T13:06:45;100967.88;;;32.70;18.50
26657;BME280;14279;50.010;8.260;2022-07-18T13:09:10;100967.59;;;32.51;18.36
26657;BME280;14279;50.010;8.260;2022-07-18T13:11:36;100964.31;;;32.56;17.98
26657;BME280;14279;50.010;8.260;2022-07-18T13:14:02;100963.47;;;32.56;17.84
26657;BME280;14279;50.010;8.260;2022-07-18T13:16:27;100958.31;;;32.61;17.90
26657;BME280;14279;50.010;8.260;2022-07-18T13:18:53;100960.81;;;32.69;17.93
26657;BME280;14279;50.010;8.260;2022-07-18T13:21:18;100960.06;;;32.95;18.12
26657;BME280;14279;50.010;8.260;2022-07-18T13:23:43;100954.47;;;33.04;18.43
26657;BME280;14279;50.010;8.260;2022-07-18T13:26:09;100949.56;;;32.52;17.21
26657;BME280;14279;50.010;8.260;2022-07-18T13:28:34;100947.63;;;32.94;17.49
26657;BME280;14279;50.010;8.260;2022-07-18T13:30:59;100948.91;;;33.39;17.12
26657;BME280;14279;50.010;8.260;2022-07-18T13:33:24;100948.28;;;33.44;16.87
26657;BME280;14279;50.010;8.260;2022-07-18T13:35:50;100943.06;;;33.62;17.06
26657;BME280;14279;50.010;8.260;2022-07-18T13:38:15;100941.00;;;33.17;17.10
26657;BME280;14279;50.010;8.260;2022-07-18T13:40:41;100942.44;;;32.86;17.54
26657;BME280;14279;50.010;8.260;2022-07-18T13:43:06;100937.66;;;32.88;17.05
26657;BME280;14279;50.010;8.260;2022-07-18T13:45:31;100944.44;;;32.77;17.70